KE5ZZN Weather Reports


Display with metric or nautical units.
time (UTC)temp
F
wind
direction
speed
MPH
gust
MPH
rain 1hr
in
rain 24hr
in
rain mn
in
humidity
%
barometer
mb
20220704001502 99 158 2.0 6.0 0.00 0.00 0.00 42 1013.0
20220704000502 99 113 3.0 6.0 0.00 0.00 0.00 41 1013.0
20220704000002 100 113 1.0 6.0 0.00 0.00 0.00 40 1013.0
20220703235503 100 113 0.0 7.0 0.00 0.00 0.00 40 1013.0
20220703235002 101 135 2.0 7.0 0.00 0.00 0.00 39 1013.0
20220703234503 102 135 2.0 7.0 0.00 0.00 0.00 38 1013.0
20220703234004 101 180 3.0 7.0 0.00 0.00 0.00 38 1013.0
20220703233503 100 113 3.0 7.0 0.00 0.00 0.00 38 1013.0
20220703233003 102 225 5.0 9.0 0.00 0.00 0.00 37 1013.0
20220703232002 102 113 4.0 9.0 0.00 0.00 0.00 36 1013.0
20220703231502 104 113 2.0 9.0 0.00 0.00 0.00 35 1013.0
20220703231003 104 113 0.0 9.0 0.00 0.00 0.00 35 1013.0
20220703230502 104 158 4.0 9.0 0.00 0.00 0.00 34 1013.0
20220703230003 104 158 4.0 9.0 0.00 0.00 0.00 35 1013.0
20220703225502 103 180 4.0 9.0 0.00 0.00 0.00 34 1013.0
20220703225003 103 203 6.0 9.0 0.00 0.00 0.00 35 1013.0
20220703224502 102 203 3.0 9.0 0.00 0.00 0.00 36 1013.0
20220703223502 103 180 5.0 9.0 0.00 0.00 0.00 34 1013.0
20220703223003 103 180 6.0 8.0 0.00 0.00 0.00 34 1013.0
20220703222503 102 225 5.0 8.0 0.00 0.00 0.00 34 1013.0
20220703222002 102 203 2.0 8.0 0.00 0.00 0.00 36 1013.0
20220703221503 102 203 5.0 8.0 0.00 0.00 0.00 34 1013.0
20220703221003 103 180 4.0 7.0 0.00 0.00 0.00 35 1013.0
20220703220503 102 203 6.0 7.0 0.00 0.00 0.00 34 1013.0
20220703220003 100 180 4.0 7.0 0.00 0.00 0.00 37 1013.0
20220703215503 98 113 3.0 7.0 0.00 0.00 0.00 40 1013.0
20220703215002 100 338 2.0 7.0 0.00 0.00 0.00 39 1013.0
20220703214503 99 135 2.0 7.0 0.00 0.00 0.00 38 1013.0
20220703214003 101 158 2.0 7.0 0.00 0.00 0.00 37 1013.0
20220703213503 102 293 1.0 7.0 0.00 0.00 0.00 37 1013.0
20220703213003 100 113 2.0 7.0 0.00 0.00 0.00 39 1013.0
20220703212502 98 203 4.0 8.0 0.00 0.00 0.00 40 1013.0
20220703212003 99 113 2.0 12.0 0.00 0.00 0.00 39 1013.0
20220703211503 101 203 5.0 12.0 0.00 0.00 0.00 38 1013.0
20220703211003 101 203 2.0 12.0 0.00 0.00 0.00 38 1013.0
20220703210502 97 158 2.0 12.0 0.00 0.00 0.00 42 1013.0
20220703210003 99 113 2.0 12.0 0.00 0.00 0.00 41 1013.0
20220703205503 100 203 4.0 12.0 0.00 0.00 0.00 40 1013.0
20220703205002 100 180 4.0 12.0 0.00 0.00 0.00 39 1013.0
20220703204503 100 180 3.0 12.0 0.00 0.00 0.00 40 1014.0
20220703204003 98 158 4.0 12.0 0.00 0.00 0.00 40 1014.0
20220703203503 100 180 5.0 12.0 0.00 0.00 0.00 39 1014.0
20220703203002 101 225 3.0 12.0 0.00 0.00 0.00 41 1014.0
20220703202502 100 113 2.0 12.0 0.00 0.00 0.00 41 1014.0
20220703202003 101 158 7.0 12.0 0.00 0.00 0.00 40 1014.0
20220703201503 100 293 4.0 8.0 0.00 0.00 0.00 41 1014.0
20220703201003 99 270 2.0 9.0 0.00 0.00 0.00 42 1014.0
20220703200503 98 180 5.0 9.0 0.00 0.00 0.00 43 1014.0
20220703200003 97 158 6.0 9.0 0.00 0.00 0.00 44 1014.0
20220703195502 98 113 4.0 9.0 0.00 0.00 0.00 44 1014.0
20220703195003 99 270 5.0 9.0 0.00 0.00 0.00 42 1014.0
20220703194003 99 113 2.0 9.0 0.00 0.00 0.00 42 1014.0
20220703193502 98 225 5.0 9.0 0.00 0.00 0.00 43 1014.0
20220703193002 97 158 4.0 9.0 0.00 0.00 0.00 44 1014.0
20220703192502 95 270 2.0 9.0 0.00 0.00 0.00 46 1014.0
20220703192003 96 203 4.0 9.0 0.00 0.00 0.00 45 1015.0
20220703191503 96 203 5.0 9.0 0.00 0.00 0.00 45 1015.0
20220703191002 95 293 7.0 9.0 0.00 0.00 0.00 46 1015.0
20220703190503 95 158 2.0 9.0 0.00 0.00 0.00 47 1015.0
20220703190003 95 180 5.0 9.0 0.00 0.00 0.00 47 1015.0
20220703185502 96 338 3.0 9.0 0.00 0.00 0.00 45 1015.0
20220703185002 95 203 5.0 9.0 0.00 0.00 0.00 45 1015.0
20220703184503 95 203 5.0 9.0 0.00 0.00 0.00 45 1015.0
20220703184003 95 338 6.0 9.0 0.00 0.00 0.00 46 1015.0
20220703183503 95 180 5.0 9.0 0.00 0.00 0.00 47 1015.0
20220703183003 94 113 2.0 9.0 0.00 0.00 0.00 49 1015.0
20220703182502 95 225 5.0 9.0 0.00 0.00 0.00 49 1015.0
20220703182003 94 270 4.0 9.0 0.00 0.00 0.00 48 1016.0
20220703181502 94 203 8.0 9.0 0.00 0.00 0.00 48 1016.0
20220703181003 93 225 5.0 9.0 0.00 0.00 0.00 50 1016.0
20220703180502 93 158 4.0 9.0 0.00 0.00 0.00 51 1016.0
20220703180003 93 225 7.0 9.0 0.00 0.00 0.00 49 1016.0
20220703175502 94 180 5.0 9.0 0.00 0.00 0.00 50 1016.0
20220703175003 93 203 6.0 9.0 0.00 0.00 0.00 52 1016.0
20220703174504 92 180 5.0 10.0 0.00 0.00 0.00 54 1016.0
20220703174002 92 248 4.0 10.0 0.00 0.00 0.00 56 1016.0
20220703173503 91 203 5.0 10.0 0.00 0.00 0.00 56 1016.0
20220703173003 91 180 3.0 10.0 0.00 0.00 0.00 57 1016.0
20220703172502 91 180 9.0 10.0 0.00 0.00 0.00 56 1016.0
20220703172002 91 203 4.0 10.0 0.00 0.00 0.00 57 1016.0
20220703171503 91 158 4.0 10.0 0.00 0.00 0.00 57 1016.0
20220703171002 90 113 2.0 10.0 0.00 0.00 0.00 59 1016.0
20220703170502 90 203 5.0 10.0 0.00 0.00 0.00 58 1016.0
20220703170003 91 203 4.0 10.0 0.00 0.00 0.00 59 1016.0
20220703165503 90 180 4.0 10.0 0.00 0.00 0.00 59 1016.0
20220703165003 90 180 5.0 10.0 0.00 0.00 0.00 60 1016.0
20220703164502 89 225 3.0 10.0 0.00 0.00 0.00 61 1016.0
20220703164003 89 203 7.0 10.0 0.00 0.00 0.00 61 1016.0
20220703163502 89 203 4.0 10.0 0.00 0.00 0.00 61 1016.0
20220703163003 89 270 9.0 11.0 0.00 0.00 0.00 61 1016.0
20220703162503 89 180 6.0 11.0 0.00 0.00 0.00 62 1016.0
20220703162003 89 225 6.0 11.0 0.00 0.00 0.00 62 1016.0
20220703161503 89 180 8.0 11.0 0.00 0.00 0.00 63 1016.0
20220703161003 88 270 5.0 11.0 0.00 0.00 0.00 64 1016.0
20220703160503 88 158 3.0 12.0 0.00 0.00 0.00 63 1016.0
20220703160002 88 180 7.0 12.0 0.00 0.00 0.00 64 1016.0
20220703155503 87 180 6.0 12.0 0.00 0.00 0.00 66 1016.0
20220703155003 87 203 7.0 12.0 0.00 0.00 0.00 65 1016.0
20220703154503 87 203 9.0 12.0 0.00 0.00 0.00 66 1016.0
20220703154002 86 203 7.0 12.0 0.00 0.00 0.00 67 1016.0
20220703153503 86 203 7.0 12.0 0.00 0.00 0.00 67 1016.0
20220703153003 86 180 7.0 12.0 0.00 0.00 0.00 67 1016.0
20220703152502 86 203 4.0 12.0 0.00 0.00 0.00 67 1016.0
20220703152003 86 270 7.0 12.0 0.00 0.00 0.00 67 1016.0
20220703151502 86 203 6.0 12.0 0.00 0.00 0.00 69 1016.0
20220703151003 86 180 6.0 12.0 0.00 0.00 0.00 69 1016.0
20220703150502 85 203 6.0 12.0 0.00 0.00 0.00 70 1016.0
20220703150003 85 203 9.0 11.0 0.00 0.00 0.00 71 1016.0
20220703145502 85 203 10.0 11.0 0.00 0.00 0.00 71 1016.0
20220703145003 85 225 10.0 11.0 0.00 0.00 0.00 70 1016.0
20220703144502 84 203 7.0 11.0 0.00 0.00 0.00 72 1016.0
20220703144002 84 225 6.0 13.0 0.00 0.00 0.00 73 1016.0
20220703143503 84 225 5.0 13.0 0.00 0.00 0.00 74 1016.0
20220703143002 84 180 6.0 13.0 0.00 0.00 0.00 74 1016.0
20220703142503 84 225 3.0 13.0 0.00 0.00 0.00 76 1016.0
20220703142003 84 225 7.0 13.0 0.00 0.00 0.00 76 1016.0
20220703141502 84 203 7.0 13.0 0.00 0.00 0.00 77 1016.0
20220703141002 83 225 6.0 13.0 0.00 0.00 0.00 79 1016.0
20220703140503 83 203 7.0 13.0 0.00 0.00 0.00 80 1016.0
20220703140003 83 203 4.0 13.0 0.00 0.00 0.00 81 1016.0
20220703135502 82 180 5.0 13.0 0.00 0.00 0.00 82 1016.0
20220703135003 82 158 7.0 13.0 0.00 0.00 0.00 82 1016.0
20220703134502 82 225 5.0 13.0 0.00 0.00 0.00 83 1016.0
20220703134003 82 203 5.0 13.0 0.00 0.00 0.00 83 1016.0
20220703133003 82 113 5.0 10.0 0.00 0.00 0.00 83 1016.0
20220703132503 82 180 4.0 10.0 0.00 0.00 0.00 84 1016.0
20220703132003 81 270 6.0 10.0 0.00 0.00 0.00 84 1015.0
20220703131502 81 180 5.0 10.0 0.00 0.00 0.00 85 1015.0
20220703131003 81 203 9.0 9.0 0.00 0.00 0.00 85 1015.0
20220703130503 81 180 9.0 9.0 0.00 0.00 0.00 86 1015.0
20220703130003 81 203 3.0 9.0 0.00 0.00 0.00 86 1015.0
20220703125503 80 180 7.0 9.0 0.00 0.00 0.00 86 1015.0
20220703125002 80 180 6.0 9.0 0.00 0.00 0.00 86 1015.0
20220703124503 80 180 6.0 9.0 0.00 0.00 0.00 87 1015.0
20220703124002 80 180 6.0 9.0 0.00 0.00 0.00 87 1015.0
20220703123503 80 203 5.0 9.0 0.00 0.00 0.00 87 1015.0
20220703123004 79 203 4.0 9.0 0.00 0.00 0.00 88 1015.0
20220703122503 79 203 4.0 9.0 0.00 0.00 0.00 88 1015.0
20220703122003 79 203 5.0 7.0 0.00 0.00 0.00 88 1015.0
20220703121503 79 180 5.0 7.0 0.00 0.00 0.00 88 1015.0
20220703121003 79 180 6.0 6.0 0.00 0.00 0.00 88 1015.0
20220703120502 79 203 5.0 7.0 0.00 0.00 0.00 88 1015.0
20220703120003 79 180 4.0 7.0 0.00 0.00 0.00 88 1015.0
20220703115503 79 180 3.0 7.0 0.00 0.00 0.00 88 1015.0
20220703115003 79 180 2.0 7.0 0.00 0.00 0.00 88 1015.0
20220703114502 79 203 5.0 7.0 0.00 0.00 0.00 88 1015.0
20220703114003 79 180 4.0 7.0 0.00 0.00 0.00 88 1015.0
20220703113503 79 180 3.0 7.0 0.00 0.00 0.00 88 1015.0
20220703113003 79 180 3.0 7.0 0.00 0.00 0.00 88 1015.0
20220703112503 79 270 4.0 7.0 0.00 0.00 0.00 88 1015.0
20220703112003 79 180 4.0 7.0 0.00 0.00 0.00 87 1015.0
20220703111503 79 158 5.0 8.0 0.00 0.00 0.00 87 1015.0
20220703111003 79 203 4.0 8.0 0.00 0.00 0.00 87 1015.0
20220703110503 79 180 3.0 8.0 0.00 0.00 0.00 87 1015.0
20220703110003 79 203 4.0 8.0 0.00 0.00 0.00 87 1015.0
20220703105502 79 203 4.0 8.0 0.00 0.00 0.00 87 1015.0
20220703105003 79 180 5.0 10.0 0.00 0.00 0.00 87 1015.0
20220703104502 79 203 4.0 10.0 0.00 0.00 0.00 87 1014.0
20220703104003 79 225 5.0 10.0 0.00 0.00 0.00 86 1014.0
20220703103502 79 203 5.0 10.0 0.00 0.00 0.00 86 1014.0
20220703103003 79 180 4.0 10.0 0.00 0.00 0.00 86 1014.0
20220703102502 79 180 4.0 10.0 0.00 0.00 0.00 86 1014.0
20220703102003 79 203 5.0 10.0 0.00 0.00 0.00 86 1014.0
20220703101502 79 180 4.0 10.0 0.00 0.00 0.00 86 1014.0
20220703101003 80 180 7.0 10.0 0.00 0.00 0.00 85 1014.0
20220703100503 80 203 4.0 10.0 0.00 0.00 0.00 85 1014.0
20220703100003 80 180 6.0 10.0 0.00 0.00 0.00 85 1014.0
20220703095503 80 135 6.0 10.0 0.00 0.00 0.00 85 1014.0
20220703095002 80 203 6.0 10.0 0.00 0.00 0.00 85 1014.0
20220703094503 80 203 6.0 10.0 0.00 0.00 0.00 85 1014.0
20220703094002 80 180 7.0 10.0 0.00 0.00 0.00 85 1014.0
20220703093503 80 203 6.0 10.0 0.00 0.00 0.00 85 1014.0
20220703093003 80 225 7.0 10.0 0.00 0.00 0.00 85 1014.0
20220703092503 80 180 6.0 10.0 0.00 0.00 0.00 85 1014.0
20220703092003 80 248 8.0 10.0 0.00 0.00 0.00 85 1014.0
20220703091503 80 203 7.0 10.0 0.00 0.00 0.00 85 1014.0
20220703091003 80 180 4.0 10.0 0.00 0.00 0.00 85 1014.0
20220703090503 80 158 7.0 10.0 0.00 0.00 0.00 85 1014.0
20220703090003 80 180 7.0 10.0 0.00 0.00 0.00 84 1014.0
20220703085502 80 203 7.0 11.0 0.00 0.00 0.00 84 1014.0
20220703085003 80 225 5.0 11.0 0.00 0.00 0.00 84 1014.0
20220703084502 80 225 5.0 11.0 0.00 0.00 0.00 84 1014.0
20220703084003 80 180 5.0 11.0 0.00 0.00 0.00 84 1014.0
20220703083503 81 158 7.0 11.0 0.00 0.00 0.00 84 1014.0
20220703083003 81 180 5.0 11.0 0.00 0.00 0.00 84 1014.0
20220703082503 81 293 4.0 11.0 0.00 0.00 0.00 84 1014.0
20220703082003 81 158 6.0 11.0 0.00 0.00 0.00 84 1013.0
20220703081503 81 180 6.0 11.0 0.00 0.00 0.00 84 1013.0
20220703081002 81 180 7.0 11.0 0.00 0.00 0.00 84 1013.0
20220703080503 81 180 6.0 11.0 0.00 0.00 0.00 84 1013.0
20220703080003 81 180 7.0 11.0 0.00 0.00 0.00 84 1013.0
20220703075503 81 203 4.0 9.0 0.00 0.00 0.00 84 1013.0
20220703075003 81 203 5.0 7.0 0.00 0.00 0.00 84 1013.0
20220703074503 81 203 6.0 7.0 0.00 0.00 0.00 84 1013.0
20220703074003 81 180 6.0 7.0 0.00 0.00 0.00 84 1013.0
20220703073503 81 203 6.0 7.0 0.00 0.00 0.00 84 1013.0
20220703073003 81 225 6.0 7.0 0.00 0.00 0.00 84 1013.0
20220703072503 81 225 5.0 7.0 0.00 0.00 0.00 84 1013.0
20220703072003 81 203 5.0 7.0 0.00 0.00 0.00 84 1013.0
20220703071502 81 158 4.0 7.0 0.00 0.00 0.00 84 1013.0
20220703071003 81 203 3.0 7.0 0.00 0.00 0.00 84 1013.0
20220703070504 81 180 5.0 7.0 0.00 0.00 0.00 84 1013.0
20220703070003 81 203 2.0 7.0 0.00 0.00 0.00 83 1013.0
20220703065503 81 203 4.0 7.0 0.00 0.00 0.00 83 1013.0
20220703065002 81 158 5.0 7.0 0.00 0.00 0.00 84 1013.0
20220703064503 81 180 5.0 7.0 0.00 0.00 0.00 84 1013.0
20220703064002 81 135 4.0 6.0 0.00 0.00 0.00 84 1013.0
20220703063502 81 270 4.0 6.0 0.00 0.00 0.00 84 1013.0
20220703063002 81 180 2.0 6.0 0.00 0.00 0.00 84 1013.0
20220703062503 81 203 2.0 6.0 0.00 0.00 0.00 84 1013.0
20220703062003 81 158 2.0 6.0 0.00 0.00 0.00 84 1013.0
20220703061503 81 113 1.0 6.0 0.00 0.00 0.00 83 1013.0
20220703061003 81 180 3.0 6.0 0.00 0.00 0.00 84 1013.0
20220703060503 81 180 4.0 6.0 0.00 0.00 0.00 84 1013.0
20220703060003 81 113 2.0 6.0 0.00 0.00 0.00 83 1013.0
20220703055503 81 203 4.0 6.0 0.00 0.00 0.00 83 1013.0
20220703055003 81 203 4.0 6.0 0.00 0.00 0.00 83 1013.0
20220703054503 81 113 2.0 4.0 0.00 0.00 0.00 85 1013.0
20220703054003 80 113 2.0 4.0 0.00 0.00 0.00 85 1013.0
20220703053503 80 113 2.0 4.0 0.00 0.00 0.00 85 1013.0
20220703053003 80 158 1.0 4.0 0.00 0.00 0.00 85 1013.0
20220703052503 80 180 0.0 3.0 0.00 0.00 0.00 85 1013.0
20220703052002 80 113 0.0 3.0 0.00 0.00 0.00 85 1013.0
20220703051503 80 113 1.0 3.0 0.00 0.00 0.00 85 1013.0
20220703051003 80 135 0.0 3.0 0.00 0.00 0.00 85 1013.0
20220703050503 80 158 2.0 3.0 0.00 0.00 0.00 85 1013.0
20220703050003 80 113 0.0 3.0 0.00 0.00 0.32 85 1013.0
20220703045503 80 135 0.0 3.0 0.00 0.00 0.32 86 1013.0
20220703045003 80 113 0.0 3.0 0.00 0.00 0.32 86 1013.0
20220703044503 80 180 2.0 3.0 0.00 0.00 0.32 86 1013.0
20220703044003 80 180 1.0 3.0 0.00 0.00 0.32 86 1013.0
20220703043503 80 113 1.0 2.0 0.00 0.00 0.32 86 1013.0
20220703043002 80 113 2.0 2.0 0.00 0.00 0.32 86 1013.0
20220703042503 80 180 0.0 2.0 0.00 0.00 0.32 86 1013.0
20220703042002 80 158 2.0 2.0 0.00 0.00 0.32 86 1013.0
20220703041503 80 158 0.0 2.0 0.00 0.00 0.32 86 1013.0
20220703041003 80 135 0.0 2.0 0.00 0.00 0.32 86 1013.0
20220703040503 80 158 2.0 2.0 0.00 0.00 0.32 86 1013.0
20220703040003 80 135 0.0 2.0 0.00 0.00 0.32 86 1013.0
20220703035503 80 315 0.0 2.0 0.00 0.00 0.32 85 1013.0
20220703035002 80 158 0.0 2.0 0.00 0.00 0.32 85 1013.0
20220703034503 80 135 0.0 2.0 0.00 0.00 0.32 85 1013.0
20220703034003 80 135 1.0 2.0 0.00 0.00 0.32 85 1013.0
20220703033503 80 113 2.0 2.0 0.00 0.00 0.32 85 1013.0
20220703033003 80 135 1.0 2.0 0.00 0.00 0.32 85 1013.0
20220703032503 80 180 2.0 2.0 0.00 0.00 0.32 85 1013.0
20220703032002 80 158 0.0 2.0 0.00 0.00 0.32 85 1013.0
20220703031503 80 158 0.0 2.0 0.00 0.00 0.32 85 1013.0
20220703031002 80 113 0.0 2.0 0.00 0.00 0.32 85 1012.0
20220703030503 80 135 0.0 2.0 0.00 0.00 0.32 85 1012.0
20220703030003 80 158 0.0 2.0 0.00 0.00 0.32 84 1012.0
20220703025503 81 135 1.0 2.0 0.00 0.00 0.32 83 1012.0
20220703024002 81 113 2.0 2.0 0.00 0.00 0.32 83 1012.0
20220703023503 81 113 2.0 2.0 0.00 0.00 0.32 83 1012.0
20220703023003 81 135 0.0 2.0 0.00 0.00 0.32 83 1012.0
20220703022503 81 158 2.0 2.0 0.00 0.00 0.32 82 1012.0
20220703021003 81 113 2.0 3.0 0.00 0.00 0.32 81 1012.0
20220703020003 82 135 2.0 4.0 0.00 0.00 0.32 79 1012.0
20220703015502 82 113 2.0 4.0 0.00 0.00 0.32 79 1012.0
20220703015003 82 135 2.0 4.0 0.00 0.00 0.32 79 1012.0
20220703014502 82 113 2.0 4.0 0.00 0.00 0.32 79 1012.0
20220703014003 83 113 2.0 4.0 0.00 0.00 0.32 77 1012.0
20220703013502 83 113 0.0 4.0 0.00 0.00 0.32 77 1011.0
20220703013003 83 113 2.0 4.0 0.00 0.00 0.32 76 1011.0
20220703012502 83 113 2.0 5.0 0.00 0.00 0.32 76 1011.0
20220703012002 84 113 2.0 5.0 0.00 0.00 0.32 76 1011.0
20220703011503 84 113 2.0 5.0 0.00 0.00 0.32 74 1011.0
20220703011002 84 113 3.0 5.0 0.00 0.00 0.32 75 1011.0
20220703010503 85 113 2.0 6.0 0.00 0.00 0.32 74 1011.0
20220703010003 85 113 2.0 6.0 0.00 0.00 0.32 73 1011.0
20220703005503 85 113 2.0 6.0 0.00 0.00 0.32 73 1011.0
20220703005002 85 113 2.0 6.0 0.00 0.00 0.32 72 1011.0
20220703004503 86 113 4.0 6.0 0.00 0.00 0.32 71 1011.0
20220703004002 86 135 3.0 6.0 0.00 0.00 0.32 71 1011.0
20220703003503 87 158 2.0 6.0 0.00 0.00 0.32 71 1011.0
20220703002503 87 113 2.0 6.0 0.00 0.00 0.32 70 1011.0
20220703002003 87 158 4.0 6.0 0.00 0.00 0.32 69 1011.0